sensor_id;sensor_type;location;lat;lon;timestamp;P1;durP1;ratioP1;P2;durP2;ratioP2
7485;SDS011;3784;54.098;9.998;2023-12-20T00:01:52;24.77;;;4.10;;
7485;SDS011;3784;54.098;9.998;2023-12-20T00:04:18;18.97;;;3.40;;
7485;SDS011;3784;54.098;9.998;2023-12-20T00:06:45;18.90;;;3.80;;
7485;SDS011;3784;54.098;9.998;2023-12-20T00:09:11;16.10;;;3.60;;
7485;SDS011;3784;54.098;9.998;2023-12-20T00:11:38;21.57;;;3.33;;
7485;SDS011;3784;54.098;9.998;2023-12-20T00:14:04;26.00;;;4.13;;
7485;SDS011;3784;54.098;9.998;2023-12-20T00:16:30;20.23;;;3.70;;
7485;SDS011;3784;54.098;9.998;2023-12-20T00:18:58;23.17;;;5.37;;
7485;SDS011;3784;54.098;9.998;2023-12-20T00:21:24;15.73;;;3.07;;
7485;SDS011;3784;54.098;9.998;2023-12-20T00:23:50;22.30;;;3.43;;
7485;SDS011;3784;54.098;9.998;2023-12-20T00:26:17;28.63;;;4.47;;
7485;SDS011;3784;54.098;9.998;2023-12-20T00:28:43;21.17;;;3.47;;
7485;SDS011;3784;54.098;9.998;2023-12-20T00:31:09;22.60;;;4.33;;
7485;SDS011;3784;54.098;9.998;2023-12-20T00:33:36;21.77;;;3.97;;
7485;SDS011;3784;54.098;9.998;2023-12-20T00:36:03;27.10;;;4.87;;
7485;SDS011;3784;54.098;9.998;2023-12-20T00:38:30;21.70;;;5.20;;
7485;SDS011;3784;54.098;9.998;2023-12-20T00:40:56;18.33;;;3.83;;
7485;SDS011;3784;54.098;9.998;2023-12-20T00:43:22;24.43;;;4.70;;
7485;SDS011;3784;54.098;9.998;2023-12-20T00:45:49;29.00;;;4.70;;
7485;SDS011;3784;54.098;9.998;2023-12-20T00:48:16;26.83;;;5.03;;
7485;SDS011;3784;54.098;9.998;2023-12-20T00:50:42;26.23;;;5.33;;
7485;SDS011;3784;54.098;9.998;2023-12-20T00:53:08;24.87;;;5.03;;
7485;SDS011;3784;54.098;9.998;2023-12-20T00:55:35;25.57;;;5.93;;
7485;SDS011;3784;54.098;9.998;2023-12-20T00:58:01;24.87;;;5.03;;
7485;SDS011;3784;54.098;9.998;2023-12-20T01:00:28;26.77;;;4.93;;
7485;SDS011;3784;54.098;9.998;2023-12-20T01:02:54;30.97;;;4.83;;
7485;SDS011;3784;54.098;9.998;2023-12-20T01:05:20;24.90;;;4.53;;
7485;SDS011;3784;54.098;9.998;2023-12-20T01:07:50;26.97;;;4.87;;
7485;SDS011;3784;54.098;9.998;2023-12-20T01:10:16;16.23;;;3.70;;
7485;SDS011;3784;54.098;9.998;2023-12-20T01:12:43;21.77;;;4.00;;
7485;SDS011;3784;54.098;9.998;2023-12-20T01:15:10;23.10;;;4.80;;
7485;SDS011;3784;54.098;9.998;2023-12-20T01:17:36;21.83;;;4.03;;
7485;SDS011;3784;54.098;9.998;2023-12-20T01:20:03;19.37;;;5.00;;
7485;SDS011;3784;54.098;9.998;2023-12-20T01:22:29;23.43;;;4.97;;
7485;SDS011;3784;54.098;9.998;2023-12-20T01:24:56;21.07;;;4.67;;
7485;SDS011;3784;54.098;9.998;2023-12-20T01:27:22;22.87;;;4.43;;
7485;SDS011;3784;54.098;9.998;2023-12-20T01:29:49;18.10;;;4.57;;
7485;SDS011;3784;54.098;9.998;2023-12-20T01:32:15;25.47;;;4.47;;
7485;SDS011;3784;54.098;9.998;2023-12-20T01:34:42;22.87;;;3.93;;
7485;SDS011;3784;54.098;9.998;2023-12-20T01:37:08;17.43;;;4.40;;
7485;SDS011;3784;54.098;9.998;2023-12-20T01:39:35;24.63;;;4.00;;
7485;SDS011;3784;54.098;9.998;2023-12-20T01:42:01;18.67;;;3.40;;
7485;SDS011;3784;54.098;9.998;2023-12-20T01:44:28;18.77;;;3.63;;
7485;SDS011;3784;54.098;9.998;2023-12-20T01:46:54;20.50;;;3.63;;
7485;SDS011;3784;54.098;9.998;2023-12-20T01:49:21;20.50;;;3.83;;
7485;SDS011;3784;54.098;9.998;2023-12-20T01:51:48;20.07;;;3.80;;
7485;SDS011;3784;54.098;9.998;2023-12-20T01:54:14;19.50;;;3.60;;
7485;SDS011;3784;54.098;9.998;2023-12-20T01:56:41;17.50;;;4.00;;
7485;SDS011;3784;54.098;9.998;2023-12-20T01:59:08;17.43;;;3.67;;
7485;SDS011;3784;54.098;9.998;2023-12-20T02:01:35;15.67;;;4.00;;
7485;SDS011;3784;54.098;9.998;2023-12-20T02:04:02;14.93;;;3.30;;
7485;SDS011;3784;54.098;9.998;2023-12-20T02:06:29;22.93;;;3.90;;
7485;SDS011;3784;54.098;9.998;2023-12-20T02:08:57;15.97;;;3.27;;
7485;SDS011;3784;54.098;9.998;2023-12-20T02:11:25;19.47;;;3.33;;
7485;SDS011;3784;54.098;9.998;2023-12-20T02:13:52;19.37;;;3.63;;
7485;SDS011;3784;54.098;9.998;2023-12-20T02:16:19;18.43;;;3.53;;
7485;SDS011;3784;54.098;9.998;2023-12-20T02:18:45;19.27;;;4.27;;
7485;SDS011;3784;54.098;9.998;2023-12-20T02:21:12;20.43;;;3.93;;
7485;SDS011;3784;54.098;9.998;2023-12-20T02:23:38;15.87;;;3.83;;
7485;SDS011;3784;54.098;9.998;2023-12-20T02:26:04;18.20;;;3.40;;
7485;SDS011;3784;54.098;9.998;2023-12-20T02:28:32;17.37;;;3.70;;
7485;SDS011;3784;54.098;9.998;2023-12-20T02:30:59;13.43;;;2.83;;
7485;SDS011;3784;54.098;9.998;2023-12-20T02:33:26;19.10;;;4.03;;
7485;SDS011;3784;54.098;9.998;2023-12-20T02:35:52;15.23;;;3.50;;
7485;SDS011;3784;54.098;9.998;2023-12-20T02:38:19;15.93;;;3.77;;
7485;SDS011;3784;54.098;9.998;2023-12-20T02:40:45;18.63;;;3.90;;
7485;SDS011;3784;54.098;9.998;2023-12-20T02:43:15;21.80;;;4.53;;
7485;SDS011;3784;54.098;9.998;2023-12-20T02:45:41;21.13;;;4.50;;
7485;SDS011;3784;54.098;9.998;2023-12-20T02:48:08;15.03;;;4.00;;
7485;SDS011;3784;54.098;9.998;2023-12-20T02:50:34;17.53;;;4.03;;
7485;SDS011;3784;54.098;9.998;2023-12-20T02:53:01;21.50;;;3.97;;
7485;SDS011;3784;54.098;9.998;2023-12-20T02:55:27;14.60;;;3.73;;
7485;SDS011;3784;54.098;9.998;2023-12-20T02:57:54;19.57;;;3.83;;
7485;SDS011;3784;54.098;9.998;2023-12-20T03:00:20;16.53;;;3.33;;
7485;SDS011;3784;54.098;9.998;2023-12-20T03:02:47;14.80;;;3.53;;
7485;SDS011;3784;54.098;9.998;2023-12-20T03:05:13;14.60;;;3.47;;
7485;SDS011;3784;54.098;9.998;2023-12-20T03:07:40;18.43;;;3.50;;
7485;SDS011;3784;54.098;9.998;2023-12-20T03:10:06;15.53;;;3.53;;
7485;SDS011;3784;54.098;9.998;2023-12-20T03:12:45;18.90;;;3.87;;
7485;SDS011;3784;54.098;9.998;2023-12-20T03:15:12;16.03;;;3.27;;
7485;SDS011;3784;54.098;9.998;2023-12-20T03:17:38;16.20;;;3.17;;
7485;SDS011;3784;54.098;9.998;2023-12-20T03:20:05;14.43;;;3.10;;
7485;SDS011;3784;54.098;9.998;2023-12-20T03:22:32;15.13;;;3.70;;
7485;SDS011;3784;54.098;9.998;2023-12-20T03:24:58;13.80;;;2.90;;
7485;SDS011;3784;54.098;9.998;2023-12-20T03:27:24;13.67;;;3.70;;
7485;SDS011;3784;54.098;9.998;2023-12-20T03:29:51;17.60;;;3.10;;
7485;SDS011;3784;54.098;9.998;2023-12-20T03:32:17;13.20;;;3.17;;
7485;SDS011;3784;54.098;9.998;2023-12-20T03:34:44;18.97;;;3.47;;
7485;SDS011;3784;54.098;9.998;2023-12-20T03:37:10;15.57;;;4.03;;
7485;SDS011;3784;54.098;9.998;2023-12-20T03:39:37;15.37;;;3.67;;
7485;SDS011;3784;54.098;9.998;2023-12-20T03:42:03;13.57;;;3.10;;
7485;SDS011;3784;54.098;9.998;2023-12-20T03:44:30;15.13;;;3.30;;
7485;SDS011;3784;54.098;9.998;2023-12-20T03:46:56;18.20;;;3.40;;
7485;SDS011;3784;54.098;9.998;2023-12-20T03:49:23;11.83;;;3.00;;
7485;SDS011;3784;54.098;9.998;2023-12-20T03:51:49;18.47;;;3.73;;
7485;SDS011;3784;54.098;9.998;2023-12-20T03:54:16;13.73;;;2.80;;
7485;SDS011;3784;54.098;9.998;2023-12-20T03:56:42;15.90;;;3.27;;
7485;SDS011;3784;54.098;9.998;2023-12-20T03:59:08;15.10;;;3.40;;
7485;SDS011;3784;54.098;9.998;2023-12-20T04:01:35;10.37;;;2.70;;
7485;SDS011;3784;54.098;9.998;2023-12-20T04:04:02;16.93;;;3.50;;
7485;SDS011;3784;54.098;9.998;2023-12-20T04:06:28;12.00;;;3.07;;
7485;SDS011;3784;54.098;9.998;2023-12-20T04:08:55;14.27;;;3.40;;
7485;SDS011;3784;54.098;9.998;2023-12-20T04:11:21;12.83;;;2.80;;
7485;SDS011;3784;54.098;9.998;2023-12-20T04:13:48;15.60;;;3.30;;
7485;SDS011;3784;54.098;9.998;2023-12-20T04:16:14;12.67;;;2.50;;
7485;SDS011;3784;54.098;9.998;2023-12-20T04:18:40;11.03;;;2.93;;
7485;SDS011;3784;54.098;9.998;2023-12-20T04:21:07;11.80;;;2.70;;
7485;SDS011;3784;54.098;9.998;2023-12-20T04:23:33;13.80;;;3.20;;
7485;SDS011;3784;54.098;9.998;2023-12-20T04:26:00;11.27;;;2.93;;
7485;SDS011;3784;54.098;9.998;2023-12-20T04:28:26;14.37;;;3.53;;
7485;SDS011;3784;54.098;9.998;2023-12-20T04:30:53;12.43;;;2.73;;
7485;SDS011;3784;54.098;9.998;2023-12-20T04:33:19;11.43;;;3.30;;
7485;SDS011;3784;54.098;9.998;2023-12-20T04:35:46;17.00;;;4.37;;
7485;SDS011;3784;54.098;9.998;2023-12-20T04:38:12;17.10;;;3.90;;
7485;SDS011;3784;54.098;9.998;2023-12-20T04:40:39;13.67;;;3.33;;
7485;SDS011;3784;54.098;9.998;2023-12-20T04:43:07;14.63;;;3.97;;
7485;SDS011;3784;54.098;9.998;2023-12-20T04:45:35;14.80;;;3.53;;
7485;SDS011;3784;54.098;9.998;2023-12-20T04:48:01;15.73;;;3.93;;
7485;SDS011;3784;54.098;9.998;2023-12-20T04:50:28;16.53;;;3.97;;
7485;SDS011;3784;54.098;9.998;2023-12-20T04:52:54;14.97;;;3.33;;
7485;SDS011;3784;54.098;9.998;2023-12-20T04:55:21;13.87;;;3.63;;
7485;SDS011;3784;54.098;9.998;2023-12-20T04:57:47;14.20;;;4.57;;
7485;SDS011;3784;54.098;9.998;2023-12-20T05:00:14;13.87;;;3.20;;
7485;SDS011;3784;54.098;9.998;2023-12-20T05:02:41;10.77;;;2.70;;
7485;SDS011;3784;54.098;9.998;2023-12-20T05:05:08;9.20;;;2.67;;
7485;SDS011;3784;54.098;9.998;2023-12-20T05:07:34;9.53;;;2.80;;
7485;SDS011;3784;54.098;9.998;2023-12-20T05:10:01;10.23;;;3.10;;
7485;SDS011;3784;54.098;9.998;2023-12-20T05:12:28;13.13;;;3.43;;
7485;SDS011;3784;54.098;9.998;2023-12-20T05:14:54;10.73;;;2.97;;
7485;SDS011;3784;54.098;9.998;2023-12-20T05:17:20;13.00;;;3.07;;
7485;SDS011;3784;54.098;9.998;2023-12-20T05:19:47;17.97;;;3.37;;
7485;SDS011;3784;54.098;9.998;2023-12-20T05:22:13;15.07;;;3.20;;
7485;SDS011;3784;54.098;9.998;2023-12-20T05:24:40;17.93;;;3.43;;
7485;SDS011;3784;54.098;9.998;2023-12-20T05:27:06;10.20;;;2.90;;
7485;SDS011;3784;54.098;9.998;2023-12-20T05:29:33;21.50;;;3.47;;
7485;SDS011;3784;54.098;9.998;2023-12-20T05:31:59;13.07;;;3.80;;
7485;SDS011;3784;54.098;9.998;2023-12-20T05:34:25;13.77;;;3.60;;
7485;SDS011;3784;54.098;9.998;2023-12-20T05:36:52;16.40;;;3.50;;
7485;SDS011;3784;54.098;9.998;2023-12-20T05:39:18;16.67;;;3.83;;
7485;SDS011;3784;54.098;9.998;2023-12-20T05:41:45;11.13;;;3.60;;
7485;SDS011;3784;54.098;9.998;2023-12-20T05:44:11;11.50;;;3.33;;
7485;SDS011;3784;54.098;9.998;2023-12-20T05:46:37;9.60;;;3.07;;
7485;SDS011;3784;54.098;9.998;2023-12-20T05:49:04;12.90;;;3.43;;
7485;SDS011;3784;54.098;9.998;2023-12-20T05:51:31;15.43;;;3.33;;
7485;SDS011;3784;54.098;9.998;2023-12-20T05:53:57;11.97;;;3.10;;
7485;SDS011;3784;54.098;9.998;2023-12-20T05:56:24;13.73;;;3.47;;
7485;SDS011;3784;54.098;9.998;2023-12-20T05:58:50;17.03;;;3.67;;
7485;SDS011;3784;54.098;9.998;2023-12-20T06:01:16;17.30;;;3.43;;
7485;SDS011;3784;54.098;9.998;2023-12-20T06:03:43;17.57;;;4.33;;
7485;SDS011;3784;54.098;9.998;2023-12-20T06:06:10;19.37;;;4.60;;
7485;SDS011;3784;54.098;9.998;2023-12-20T06:08:42;21.33;;;4.83;;
7485;SDS011;3784;54.098;9.998;2023-12-20T06:11:10;18.60;;;4.77;;
7485;SDS011;3784;54.098;9.998;2023-12-20T06:13:36;22.50;;;5.27;;
7485;SDS011;3784;54.098;9.998;2023-12-20T06:16:03;18.10;;;4.80;;
7485;SDS011;3784;54.098;9.998;2023-12-20T06:18:31;21.53;;;4.73;;
7485;SDS011;3784;54.098;9.998;2023-12-20T06:20:57;24.10;;;5.13;;
7485;SDS011;3784;54.098;9.998;2023-12-20T06:23:24;30.57;;;5.47;;
7485;SDS011;3784;54.098;9.998;2023-12-20T06:25:50;20.50;;;4.93;;
7485;SDS011;3784;54.098;9.998;2023-12-20T06:28:16;21.93;;;5.13;;
7485;SDS011;3784;54.098;9.998;2023-12-20T06:30:43;21.60;;;5.60;;
7485;SDS011;3784;54.098;9.998;2023-12-20T06:33:10;29.07;;;5.20;;
7485;SDS011;3784;54.098;9.998;2023-12-20T06:35:37;20.90;;;4.40;;
7485;SDS011;3784;54.098;9.998;2023-12-20T06:38:04;30.73;;;4.80;;
7485;SDS011;3784;54.098;9.998;2023-12-20T06:40:30;21.93;;;4.77;;
7485;SDS011;3784;54.098;9.998;2023-12-20T06:42:57;27.13;;;5.33;;
7485;SDS011;3784;54.098;9.998;2023-12-20T06:45:34;24.20;;;5.03;;
7485;SDS011;3784;54.098;9.998;2023-12-20T06:48:00;22.23;;;5.90;;
7485;SDS011;3784;54.098;9.998;2023-12-20T06:50:27;26.77;;;5.50;;
7485;SDS011;3784;54.098;9.998;2023-12-20T06:52:53;25.13;;;5.47;;
7485;SDS011;3784;54.098;9.998;2023-12-20T06:55:20;27.70;;;5.10;;
7485;SDS011;3784;54.098;9.998;2023-12-20T06:57:46;31.40;;;5.23;;
7485;SDS011;3784;54.098;9.998;2023-12-20T07:00:13;32.53;;;5.67;;
7485;SDS011;3784;54.098;9.998;2023-12-20T07:02:40;25.33;;;5.40;;
7485;SDS011;3784;54.098;9.998;2023-12-20T07:05:07;31.10;;;5.33;;
7485;SDS011;3784;54.098;9.998;2023-12-20T07:07:33;25.50;;;4.93;;
7485;SDS011;3784;54.098;9.998;2023-12-20T07:10:00;25.00;;;5.23;;
7485;SDS011;3784;54.098;9.998;2023-12-20T07:12:26;31.03;;;5.90;;
7485;SDS011;3784;54.098;9.998;2023-12-20T07:14:53;26.07;;;5.47;;
7485;SDS011;3784;54.098;9.998;2023-12-20T07:17:19;25.97;;;4.97;;
7485;SDS011;3784;54.098;9.998;2023-12-20T07:19:46;23.07;;;4.13;;
7485;SDS011;3784;54.098;9.998;2023-12-20T07:22:12;22.40;;;4.43;;
7485;SDS011;3784;54.098;9.998;2023-12-20T07:24:39;18.03;;;4.20;;
7485;SDS011;3784;54.098;9.998;2023-12-20T07:27:05;16.30;;;3.57;;
7485;SDS011;3784;54.098;9.998;2023-12-20T07:29:32;15.83;;;3.90;;
7485;SDS011;3784;54.098;9.998;2023-12-20T07:31:58;19.53;;;3.50;;
7485;SDS011;3784;54.098;9.998;2023-12-20T07:34:24;17.13;;;3.70;;
7485;SDS011;3784;54.098;9.998;2023-12-20T07:36:51;18.00;;;3.67;;
7485;SDS011;3784;54.098;9.998;2023-12-20T07:39:17;20.67;;;3.60;;
7485;SDS011;3784;54.098;9.998;2023-12-20T07:41:44;16.90;;;3.77;;
7485;SDS011;3784;54.098;9.998;2023-12-20T07:44:12;25.37;;;4.27;;
7485;SDS011;3784;54.098;9.998;2023-12-20T07:46:38;18.60;;;4.10;;
7485;SDS011;3784;54.098;9.998;2023-12-20T07:49:05;22.53;;;4.83;;
7485;SDS011;3784;54.098;9.998;2023-12-20T07:51:31;24.33;;;5.57;;
7485;SDS011;3784;54.098;9.998;2023-12-20T07:53:57;27.10;;;5.40;;
7485;SDS011;3784;54.098;9.998;2023-12-20T07:56:24;28.50;;;5.40;;
7485;SDS011;3784;54.098;9.998;2023-12-20T07:58:50;24.53;;;5.80;;
7485;SDS011;3784;54.098;9.998;2023-12-20T08:01:19;27.90;;;5.20;;
7485;SDS011;3784;54.098;9.998;2023-12-20T08:03:48;20.57;;;3.93;;
7485;SDS011;3784;54.098;9.998;2023-12-20T08:06:15;13.67;;;2.90;;
7485;SDS011;3784;54.098;9.998;2023-12-20T08:08:43;7.57;;;2.37;;
7485;SDS011;3784;54.098;9.998;2023-12-20T08:11:10;11.13;;;2.50;;
7485;SDS011;3784;54.098;9.998;2023-12-20T08:13:37;7.57;;;1.97;;
7485;SDS011;3784;54.098;9.998;2023-12-20T08:16:03;8.57;;;2.60;;
7485;SDS011;3784;54.098;9.998;2023-12-20T08:18:31;12.77;;;2.70;;
7485;SDS011;3784;54.098;9.998;2023-12-20T08:20:58;16.03;;;3.60;;
7485;SDS011;3784;54.098;9.998;2023-12-20T08:23:24;14.77;;;3.93;;
7485;SDS011;3784;54.098;9.998;2023-12-20T08:25:53;13.33;;;3.70;;
7485;SDS011;3784;54.098;9.998;2023-12-20T08:28:19;14.13;;;3.83;;
7485;SDS011;3784;54.098;9.998;2023-12-20T08:30:46;16.50;;;4.13;;
7485;SDS011;3784;54.098;9.998;2023-12-20T08:33:12;14.13;;;3.53;;
7485;SDS011;3784;54.098;9.998;2023-12-20T08:35:39;14.17;;;3.13;;
7485;SDS011;3784;54.098;9.998;2023-12-20T08:38:06;11.50;;;3.47;;
7485;SDS011;3784;54.098;9.998;2023-12-20T08:40:33;17.67;;;3.73;;
7485;SDS011;3784;54.098;9.998;2023-12-20T08:42:59;19.47;;;4.17;;
7485;SDS011;3784;54.098;9.998;2023-12-20T08:45:26;8.23;;;3.73;;
7485;SDS011;3784;54.098;9.998;2023-12-20T08:47:52;9.17;;;2.80;;
7485;SDS011;3784;54.098;9.998;2023-12-20T08:50:19;3.57;;;1.47;;
7485;SDS011;3784;54.098;9.998;2023-12-20T08:52:45;4.57;;;2.10;;
7485;SDS011;3784;54.098;9.998;2023-12-20T08:55:12;5.00;;;1.63;;
7485;SDS011;3784;54.098;9.998;2023-12-20T08:57:39;8.17;;;1.73;;
7485;SDS011;3784;54.098;9.998;2023-12-20T09:00:06;4.87;;;1.97;;
7485;SDS011;3784;54.098;9.998;2023-12-20T09:02:34;5.33;;;1.73;;
7485;SDS011;3784;54.098;9.998;2023-12-20T09:05:02;5.40;;;2.00;;
7485;SDS011;3784;54.098;9.998;2023-12-20T09:07:29;6.13;;;1.70;;
7485;SDS011;3784;54.098;9.998;2023-12-20T09:09:58;8.73;;;2.10;;
7485;SDS011;3784;54.098;9.998;2023-12-20T09:12:25;7.53;;;2.03;;
7485;SDS011;3784;54.098;9.998;2023-12-20T09:14:51;5.93;;;2.03;;
7485;SDS011;3784;54.098;9.998;2023-12-20T09:17:18;7.33;;;2.07;;
7485;SDS011;3784;54.098;9.998;2023-12-20T09:19:45;7.90;;;2.10;;
7485;SDS011;3784;54.098;9.998;2023-12-20T09:22:12;11.83;;;2.63;;
7485;SDS011;3784;54.098;9.998;2023-12-20T09:24:38;6.23;;;1.90;;
7485;SDS011;3784;54.098;9.998;2023-12-20T09:27:05;5.70;;;2.07;;
7485;SDS011;3784;54.098;9.998;2023-12-20T09:29:32;6.93;;;2.10;;
7485;SDS011;3784;54.098;9.998;2023-12-20T09:31:58;8.53;;;2.20;;
7485;SDS011;3784;54.098;9.998;2023-12-20T09:34:25;7.07;;;2.50;;
7485;SDS011;3784;54.098;9.998;2023-12-20T09:36:55;9.17;;;2.00;;
7485;SDS011;3784;54.098;9.998;2023-12-20T09:39:22;8.07;;;2.20;;
7485;SDS011;3784;54.098;9.998;2023-12-20T09:42:01;7.57;;;1.70;;
7485;SDS011;3784;54.098;9.998;2023-12-20T09:44:32;7.93;;;2.97;;
7485;SDS011;3784;54.098;9.998;2023-12-20T09:47:08;10.23;;;1.90;;
7485;SDS011;3784;54.098;9.998;2023-12-20T09:49:37;7.33;;;1.53;;
7485;SDS011;3784;54.098;9.998;2023-12-20T09:52:05;8.27;;;2.20;;
7485;SDS011;3784;54.098;9.998;2023-12-20T09:54:33;8.40;;;1.93;;
7485;SDS011;3784;54.098;9.998;2023-12-20T09:57:00;9.40;;;2.63;;
7485;SDS011;3784;54.098;9.998;2023-12-20T09:59:26;9.43;;;2.30;;
7485;SDS011;3784;54.098;9.998;2023-12-20T10:01:53;10.13;;;2.50;;
7485;SDS011;3784;54.098;9.998;2023-12-20T10:04:24;7.70;;;1.80;;
7485;SDS011;3784;54.098;9.998;2023-12-20T10:06:56;7.00;;;2.47;;
7485;SDS011;3784;54.098;9.998;2023-12-20T10:09:23;6.63;;;2.00;;
7485;SDS011;3784;54.098;9.998;2023-12-20T10:11:50;11.60;;;2.47;;
7485;SDS011;3784;54.098;9.998;2023-12-20T10:14:20;9.83;;;2.50;;
7485;SDS011;3784;54.098;9.998;2023-12-20T10:16:50;10.10;;;2.50;;
7485;SDS011;3784;54.098;9.998;2023-12-20T10:19:17;9.07;;;2.27;;
7485;SDS011;3784;54.098;9.998;2023-12-20T10:21:44;7.83;;;2.10;;
7485;SDS011;3784;54.098;9.998;2023-12-20T10:24:16;8.00;;;2.00;;
7485;SDS011;3784;54.098;9.998;2023-12-20T10:26:43;13.30;;;2.80;;
7485;SDS011;3784;54.098;9.998;2023-12-20T10:29:10;12.17;;;2.50;;
7485;SDS011;3784;54.098;9.998;2023-12-20T10:31:36;7.27;;;2.13;;
7485;SDS011;3784;54.098;9.998;2023-12-20T10:34:05;11.40;;;2.00;;
7485;SDS011;3784;54.098;9.998;2023-12-20T10:36:34;14.03;;;2.60;;
7485;SDS011;3784;54.098;9.998;2023-12-20T10:39:00;6.60;;;2.10;;
7485;SDS011;3784;54.098;9.998;2023-12-20T10:41:29;8.07;;;2.03;;
7485;SDS011;3784;54.098;9.998;2023-12-20T10:44:01;6.70;;;2.67;;
7485;SDS011;3784;54.098;9.998;2023-12-20T10:46:29;6.90;;;1.70;;
7485;SDS011;3784;54.098;9.998;2023-12-20T10:48:56;6.40;;;1.70;;
7485;SDS011;3784;54.098;9.998;2023-12-20T10:51:23;5.33;;;1.57;;
7485;SDS011;3784;54.098;9.998;2023-12-20T10:53:52;5.23;;;1.40;;
7485;SDS011;3784;54.098;9.998;2023-12-20T10:56:21;6.73;;;1.73;;
7485;SDS011;3784;54.098;9.998;2023-12-20T10:58:56;4.50;;;1.57;;
7485;SDS011;3784;54.098;9.998;2023-12-20T11:01:24;5.77;;;1.83;;
7485;SDS011;3784;54.098;9.998;2023-12-20T11:03:51;8.03;;;1.80;;
7485;SDS011;3784;54.098;9.998;2023-12-20T11:09:22;4.70;;;1.90;;
7485;SDS011;3784;54.098;9.998;2023-12-20T11:14:41;11.20;;;2.83;;
7485;SDS011;3784;54.098;9.998;2023-12-20T11:17:12;7.07;;;1.77;;
7485;SDS011;3784;54.098;9.998;2023-12-20T11:22:24;8.40;;;2.03;;
7485;SDS011;3784;54.098;9.998;2023-12-20T11:24:52;7.83;;;2.13;;
7485;SDS011;3784;54.098;9.998;2023-12-20T11:27:19;6.63;;;2.23;;
7485;SDS011;3784;54.098;9.998;2023-12-20T11:29:52;12.90;;;2.23;;
7485;SDS011;3784;54.098;9.998;2023-12-20T11:34:54;8.20;;;2.57;;
7485;SDS011;3784;54.098;9.998;2023-12-20T11:37:22;11.73;;;2.33;;
7485;SDS011;3784;54.098;9.998;2023-12-20T11:39:55;9.40;;;2.33;;
7485;SDS011;3784;54.098;9.998;2023-12-20T11:42:22;13.60;;;2.73;;
7485;SDS011;3784;54.098;9.998;2023-12-20T11:44:49;7.93;;;2.50;;
7485;SDS011;3784;54.098;9.998;2023-12-20T11:47:16;7.93;;;2.40;;
7485;SDS011;3784;54.098;9.998;2023-12-20T11:49:48;9.47;;;2.33;;
7485;SDS011;3784;54.098;9.998;2023-12-20T11:52:15;10.27;;;3.07;;
7485;SDS011;3784;54.098;9.998;2023-12-20T11:54:42;12.43;;;3.20;;
7485;SDS011;3784;54.098;9.998;2023-12-20T11:57:08;15.77;;;3.10;;
7485;SDS011;3784;54.098;9.998;2023-12-20T11:59:41;12.17;;;3.37;;
7485;SDS011;3784;54.098;9.998;2023-12-20T12:02:11;9.40;;;2.80;;
7485;SDS011;3784;54.098;9.998;2023-12-20T12:04:38;13.10;;;3.20;;
7485;SDS011;3784;54.098;9.998;2023-12-20T12:07:04;14.77;;;3.40;;
7485;SDS011;3784;54.098;9.998;2023-12-20T12:09:31;10.80;;;3.10;;
7485;SDS011;3784;54.098;9.998;2023-12-20T12:11:57;12.53;;;3.27;;
7485;SDS011;3784;54.098;9.998;2023-12-20T12:14:24;12.00;;;3.17;;
7485;SDS011;3784;54.098;9.998;2023-12-20T12:16:51;20.27;;;3.83;;
7485;SDS011;3784;54.098;9.998;2023-12-20T12:19:20;13.10;;;3.63;;
7485;SDS011;3784;54.098;9.998;2023-12-20T12:21:47;11.67;;;4.00;;
7485;SDS011;3784;54.098;9.998;2023-12-20T12:24:13;12.87;;;3.47;;
7485;SDS011;3784;54.098;9.998;2023-12-20T12:26:40;17.40;;;4.30;;
7485;SDS011;3784;54.098;9.998;2023-12-20T12:29:09;13.23;;;3.70;;
7485;SDS011;3784;54.098;9.998;2023-12-20T12:31:36;14.83;;;4.60;;
7485;SDS011;3784;54.098;9.998;2023-12-20T12:34:02;18.57;;;4.67;;
7485;SDS011;3784;54.098;9.998;2023-12-20T12:36:29;16.57;;;3.87;;
7485;SDS011;3784;54.098;9.998;2023-12-20T12:39:01;13.83;;;3.87;;
7485;SDS011;3784;54.098;9.998;2023-12-20T12:41:35;13.40;;;5.30;;
7485;SDS011;3784;54.098;9.998;2023-12-20T12:44:02;16.43;;;4.37;;
7485;SDS011;3784;54.098;9.998;2023-12-20T12:46:39;16.67;;;4.07;;
7485;SDS011;3784;54.098;9.998;2023-12-20T12:49:15;15.00;;;4.80;;
7485;SDS011;3784;54.098;9.998;2023-12-20T12:51:42;18.77;;;5.50;;
7485;SDS011;3784;54.098;9.998;2023-12-20T12:54:10;16.53;;;4.70;;
7485;SDS011;3784;54.098;9.998;2023-12-20T12:56:39;17.77;;;4.23;;
7485;SDS011;3784;54.098;9.998;2023-12-20T12:59:06;14.43;;;4.13;;
7485;SDS011;3784;54.098;9.998;2023-12-20T13:01:32;17.87;;;4.37;;
7485;SDS011;3784;54.098;9.998;2023-12-20T13:04:02;12.43;;;3.93;;
7485;SDS011;3784;54.098;9.998;2023-12-20T13:06:32;12.97;;;4.40;;
7485;SDS011;3784;54.098;9.998;2023-12-20T13:08:59;18.97;;;4.37;;
7485;SDS011;3784;54.098;9.998;2023-12-20T13:11:25;14.77;;;4.37;;
7485;SDS011;3784;54.098;9.998;2023-12-20T13:13:52;14.33;;;4.77;;
7485;SDS011;3784;54.098;9.998;2023-12-20T13:16:18;16.23;;;5.00;;
7485;SDS011;3784;54.098;9.998;2023-12-20T13:18:45;20.00;;;4.27;;
7485;SDS011;3784;54.098;9.998;2023-12-20T13:21:11;18.33;;;5.07;;
7485;SDS011;3784;54.098;9.998;2023-12-20T13:23:38;13.83;;;5.33;;
7485;SDS011;3784;54.098;9.998;2023-12-20T13:26:06;20.07;;;5.37;;
7485;SDS011;3784;54.098;9.998;2023-12-20T13:28:33;17.63;;;4.83;;
7485;SDS011;3784;54.098;9.998;2023-12-20T13:31:01;19.10;;;4.90;;
7485;SDS011;3784;54.098;9.998;2023-12-20T13:33:28;22.47;;;5.77;;
7485;SDS011;3784;54.098;9.998;2023-12-20T13:35:54;17.77;;;5.00;;
7485;SDS011;3784;54.098;9.998;2023-12-20T13:38:22;14.77;;;6.27;;
7485;SDS011;3784;54.098;9.998;2023-12-20T13:40:49;18.27;;;6.03;;
7485;SDS011;3784;54.098;9.998;2023-12-20T13:43:15;20.27;;;6.13;;
7485;SDS011;3784;54.098;9.998;2023-12-20T13:45:47;18.07;;;5.07;;
7485;SDS011;3784;54.098;9.998;2023-12-20T13:48:14;22.53;;;5.60;;
7485;SDS011;3784;54.098;9.998;2023-12-20T13:50:40;18.37;;;4.53;;
7485;SDS011;3784;54.098;9.998;2023-12-20T13:53:07;14.20;;;4.43;;
7485;SDS011;3784;54.098;9.998;2023-12-20T13:55:34;16.97;;;4.67;;
7485;SDS011;3784;54.098;9.998;2023-12-20T13:58:00;21.07;;;5.77;;
7485;SDS011;3784;54.098;9.998;2023-12-20T14:00:27;14.37;;;4.63;;
7485;SDS011;3784;54.098;9.998;2023-12-20T14:02:53;14.20;;;5.00;;
7485;SDS011;3784;54.098;9.998;2023-12-20T14:05:20;18.27;;;5.80;;
7485;SDS011;3784;54.098;9.998;2023-12-20T14:07:52;19.53;;;5.70;;
7485;SDS011;3784;54.098;9.998;2023-12-20T14:10:20;20.23;;;5.33;;
7485;SDS011;3784;54.098;9.998;2023-12-20T14:12:46;17.03;;;5.37;;
7485;SDS011;3784;54.098;9.998;2023-12-20T14:15:13;12.83;;;4.87;;
7485;SDS011;3784;54.098;9.998;2023-12-20T14:17:40;12.63;;;4.83;;
7485;SDS011;3784;54.098;9.998;2023-12-20T14:20:08;11.70;;;4.23;;
7485;SDS011;3784;54.098;9.998;2023-12-20T14:22:41;12.57;;;3.97;;
7485;SDS011;3784;54.098;9.998;2023-12-20T14:25:13;11.10;;;4.13;;
7485;SDS011;3784;54.098;9.998;2023-12-20T14:27:46;10.17;;;3.97;;
7485;SDS011;3784;54.098;9.998;2023-12-20T14:30:13;12.40;;;4.13;;
7485;SDS011;3784;54.098;9.998;2023-12-20T14:32:41;13.77;;;4.47;;
7485;SDS011;3784;54.098;9.998;2023-12-20T14:35:08;13.13;;;4.43;;
7485;SDS011;3784;54.098;9.998;2023-12-20T14:37:35;13.00;;;4.17;;
7485;SDS011;3784;54.098;9.998;2023-12-20T14:40:05;11.57;;;4.23;;
7485;SDS011;3784;54.098;9.998;2023-12-20T14:42:41;11.87;;;4.97;;
7485;SDS011;3784;54.098;9.998;2023-12-20T14:45:10;17.10;;;5.07;;
7485;SDS011;3784;54.098;9.998;2023-12-20T14:48:09;10.53;;;4.50;;
7485;SDS011;3784;54.098;9.998;2023-12-20T14:50:55;12.13;;;4.47;;
7485;SDS011;3784;54.098;9.998;2023-12-20T14:57:58;13.87;;;4.60;;
7485;SDS011;3784;54.098;9.998;2023-12-20T15:01:17;17.20;;;4.93;;
7485;SDS011;3784;54.098;9.998;2023-12-20T15:04:51;13.17;;;4.70;;
7485;SDS011;3784;54.098;9.998;2023-12-20T15:07:33;11.40;;;4.77;;
7485;SDS011;3784;54.098;9.998;2023-12-20T15:11:04;16.90;;;5.20;;
7485;SDS011;3784;54.098;9.998;2023-12-20T15:13:49;12.17;;;4.83;;
7485;SDS011;3784;54.098;9.998;2023-12-20T15:27:33;14.27;;;4.33;;
7485;SDS011;3784;54.098;9.998;2023-12-20T15:34:38;11.77;;;4.87;;
7485;SDS011;3784;54.098;9.998;2023-12-20T15:37:39;16.80;;;5.17;;
7485;SDS011;3784;54.098;9.998;2023-12-20T15:40:44;15.97;;;5.07;;